createdAt,value
2023-02-11T00:02:24.324Z,44.70
2023-02-11T00:07:33.155Z,48.00
2023-02-11T00:12:41.324Z,43.20
2023-02-11T00:17:49.239Z,53.80
2023-02-11T00:22:57.560Z,42.40
2023-02-11T00:28:05.738Z,43.90
2023-02-11T00:33:14.075Z,50.60
2023-02-11T00:38:22.661Z,46.30
2023-02-11T00:43:31.050Z,43.60
2023-02-11T00:48:39.056Z,46.70
2023-02-11T00:53:46.730Z,46.50
2023-02-11T00:58:54.924Z,44.70
2023-02-11T01:04:03.215Z,51.10
2023-02-11T01:09:11.282Z,44.20
2023-02-11T01:14:19.556Z,46.00
2023-02-11T01:19:28.230Z,50.60
2023-02-11T01:24:38.111Z,54.00
2023-02-11T01:29:48.522Z,46.40
2023-02-11T01:34:56.578Z,54.30
2023-02-11T01:40:05.448Z,54.10
2023-02-11T01:45:55.190Z,56.00
2023-02-11T01:51:07.109Z,51.40
2023-02-11T01:56:34.832Z,52.10
2023-02-11T02:01:48.662Z,60.00
2023-02-11T02:07:02.573Z,47.50
2023-02-11T02:12:11.761Z,55.80
2023-02-11T02:17:37.286Z,46.90
2023-02-11T02:23:09.559Z,41.10
2023-02-11T02:28:36.901Z,47.60
2023-02-11T02:33:56.035Z,54.20
2023-02-11T02:39:07.670Z,47.00
2023-02-11T02:44:16.087Z,63.60
2023-02-11T02:49:24.480Z,54.70
2023-02-11T02:55:05.119Z,57.60
2023-02-11T03:00:33.208Z,49.40
2023-02-11T03:05:50.851Z,63.00
2023-02-11T03:11:01.110Z,68.40
2023-02-11T03:16:16.102Z,56.80
2023-02-11T03:21:24.877Z,65.70
2023-02-11T03:26:38.723Z,56.60
2023-02-11T03:31:58.588Z,52.90
2023-02-11T03:37:14.555Z,60.90
2023-02-11T03:42:25.647Z,55.60
2023-02-11T03:47:37.720Z,67.20
2023-02-11T03:52:47.144Z,55.50
2023-02-11T03:57:55.423Z,62.80
2023-02-11T04:03:03.297Z,57.60
2023-02-11T04:08:11.648Z,55.60
2023-02-11T04:13:20.404Z,55.70
2023-02-11T04:18:29.088Z,60.50
2023-02-11T04:23:36.885Z,62.10
2023-02-11T04:28:44.539Z,62.00
2023-02-11T04:33:52.726Z,58.70
2023-02-11T04:39:00.413Z,53.00
2023-02-11T04:44:08.669Z,53.40
2023-02-11T04:49:17.784Z,45.80
2023-02-11T04:54:25.612Z,47.70
2023-02-11T04:59:33.465Z,47.30
2023-02-11T05:04:41.530Z,51.30
2023-02-11T05:09:49.566Z,59.30
2023-02-11T05:14:57.198Z,50.70
2023-02-11T05:20:06.040Z,60.20
2023-02-11T05:25:14.137Z,49.90
2023-02-11T05:30:22.652Z,57.10
2023-02-11T05:35:30.715Z,52.30
2023-02-11T05:40:38.281Z,53.60
2023-02-11T05:45:46.031Z,49.30
2023-02-11T05:50:54.245Z,53.30
2023-02-11T05:56:02.224Z,51.30
2023-02-11T06:01:10.600Z,49.10
2023-02-11T06:06:18.835Z,56.80
2023-02-11T06:11:27.539Z,48.30
2023-02-11T06:16:35.528Z,50.10
2023-02-11T06:21:44.620Z,44.40
2023-02-11T06:26:52.438Z,43.80
2023-02-11T06:32:00.682Z,51.90
2023-02-11T06:37:08.642Z,43.90
2023-02-11T06:42:16.602Z,47.00
2023-02-11T06:47:24.454Z,48.70
2023-02-11T06:52:32.632Z,43.60
2023-02-11T06:57:40.913Z,42.10
2023-02-11T07:02:48.718Z,38.90
2023-02-11T07:07:56.606Z,44.00
2023-02-11T07:13:05.048Z,48.30
2023-02-11T07:18:14.612Z,42.00
2023-02-11T07:23:23.174Z,40.80
2023-02-11T07:28:31.074Z,42.20
2023-02-11T07:33:39.638Z,43.60
2023-02-11T07:38:48.071Z,44.40
2023-02-11T07:43:56.043Z,45.70
2023-02-11T07:49:04.170Z,47.30
2023-02-11T07:54:12.249Z,38.70
2023-02-11T07:59:20.284Z,44.50
2023-02-11T08:04:28.363Z,44.00
2023-02-11T08:09:36.205Z,41.10
2023-02-11T08:14:44.217Z,45.80
2023-02-11T08:19:51.905Z,34.10
2023-02-11T08:25:00.439Z,43.90
2023-02-11T08:30:09.536Z,45.20
2023-02-11T08:35:17.586Z,42.40
2023-02-11T08:40:25.911Z,41.50
2023-02-11T08:45:34.516Z,42.20
2023-02-11T08:50:44.187Z,42.00
2023-02-11T08:55:54.929Z,40.70
2023-02-11T09:01:03.727Z,39.20
2023-02-11T09:06:13.082Z,37.60
2023-02-11T09:11:24.255Z,37.20
2023-02-11T09:16:33.668Z,34.50
2023-02-11T09:21:41.960Z,38.10
2023-02-11T09:26:50.075Z,39.70
2023-02-11T09:31:58.559Z,33.50
2023-02-11T09:37:06.782Z,40.50
2023-02-11T09:42:44.546Z,34.80
2023-02-11T09:47:57.820Z,30.90
2023-02-11T09:53:12.620Z,30.40
2023-02-11T09:58:26.964Z,28.40
2023-02-11T10:04:07.137Z,32.60
2023-02-11T10:09:30.379Z,24.90
2023-02-11T10:15:03.703Z,28.00
2023-02-11T10:20:28.925Z,29.10
2023-02-11T10:25:40.707Z,28.80
2023-02-11T10:30:58.989Z,23.50
2023-02-11T10:36:09.409Z,25.30
2023-02-11T10:41:23.763Z,23.90
2023-02-11T10:46:35.364Z,21.40
2023-02-11T10:51:43.645Z,23.70
2023-02-11T10:56:54.038Z,25.80
2023-02-11T11:02:08.552Z,25.40
2023-02-11T11:07:23.616Z,23.70
2023-02-11T11:12:48.779Z,17.30
2023-02-11T11:18:21.863Z,20.90
2023-02-11T11:23:32.324Z,21.90
2023-02-11T11:28:52.591Z,21.40
2023-02-11T11:34:02.467Z,24.30
2023-02-11T11:39:25.609Z,19.40
2023-02-11T11:44:36.008Z,22.00
2023-02-11T11:49:47.260Z,18.00
2023-02-11T11:55:02.614Z,15.30
2023-02-11T12:00:19.959Z,15.10
2023-02-11T12:05:37.500Z,15.30
2023-02-11T12:11:10.373Z,15.60
2023-02-11T12:16:28.517Z,12.70
2023-02-11T12:21:47.701Z,18.20
2023-02-11T12:27:01.429Z,13.60
2023-02-11T12:32:28.462Z,14.90
2023-02-11T12:37:51.600Z,13.70
2023-02-11T12:43:21.215Z,15.20
2023-02-11T12:48:57.298Z,13.40
2023-02-11T12:54:26.302Z,13.10
2023-02-11T12:59:47.533Z,11.10
2023-02-11T13:04:59.452Z,10.30
2023-02-11T13:10:25.212Z,12.10
2023-02-11T13:15:35.515Z,11.50
2023-02-11T13:20:50.206Z,14.90
2023-02-11T13:26:05.484Z,11.50
2023-02-11T13:31:16.902Z,10.60
2023-02-11T13:36:27.694Z,11.10
2023-02-11T13:41:38.143Z,10.10
2023-02-11T13:47:01.843Z,9.30
2023-02-11T13:52:23.975Z,8.70
2023-02-11T13:57:39.777Z,11.00
2023-02-11T14:03:25.247Z,10.80
2023-02-11T14:08:51.081Z,9.90
2023-02-11T14:14:18.970Z,8.20
2023-02-11T14:19:37.847Z,8.90
2023-02-11T14:25:01.302Z,8.20
2023-02-11T14:30:25.841Z,9.00
2023-02-11T14:35:46.361Z,8.40
2023-02-11T14:41:04.008Z,9.10
2023-02-11T14:46:12.752Z,7.70
2023-02-11T14:51:26.276Z,8.90
2023-02-11T14:56:36.700Z,12.50
2023-02-11T15:01:48.310Z,7.20
2023-02-11T15:06:59.730Z,11.20
2023-02-11T15:12:18.460Z,8.60
2023-02-11T15:17:31.589Z,11.00
2023-02-11T15:22:41.968Z,15.30
2023-02-11T15:27:52.107Z,11.10
2023-02-11T15:33:03.665Z,13.40
2023-02-11T15:38:15.761Z,12.50
2023-02-11T15:43:24.071Z,14.30
2023-02-11T15:48:39.626Z,13.00
2023-02-11T15:53:50.716Z,7.20
2023-02-11T15:59:02.664Z,11.20
2023-02-11T16:04:21.386Z,11.70
2023-02-11T16:09:35.557Z,14.30
2023-02-11T16:14:44.805Z,14.20
2023-02-11T16:19:55.623Z,10.90
2023-02-11T16:25:04.178Z,11.30
2023-02-11T16:30:29.624Z,13.00
2023-02-11T16:35:37.965Z,15.60
2023-02-11T16:40:49.698Z,12.70
2023-02-11T16:46:00.269Z,8.70
2023-02-11T16:51:10.121Z,16.60
2023-02-11T16:56:19.691Z,8.50
2023-02-11T17:01:27.254Z,16.00
2023-02-11T17:06:35.384Z,18.90
2023-02-11T17:11:43.891Z,44.40
2023-02-11T17:16:52.375Z,69.10
2023-02-11T17:22:00.685Z,68.70
2023-02-11T17:27:11.351Z,223.80
2023-02-11T17:32:19.984Z,187.80
2023-02-11T17:37:28.922Z,134.60
2023-02-11T17:42:39.340Z,128.80
2023-02-11T17:47:49.543Z,182.10
2023-02-11T17:52:58.977Z,386.50
2023-02-11T17:58:07.663Z,389.70
2023-02-11T18:03:16.260Z,258.60
2023-02-11T18:08:24.347Z,248.10
2023-02-11T18:13:32.972Z,181.00
2023-02-11T18:18:41.245Z,180.10
2023-02-11T18:23:49.861Z,206.90
2023-02-11T18:29:00.513Z,192.80
2023-02-11T18:34:11.027Z,199.80
2023-02-11T18:39:19.868Z,192.10
2023-02-11T18:44:29.248Z,165.60
2023-02-11T18:49:37.784Z,185.00
2023-02-11T18:54:46.116Z,242.90
2023-02-11T18:59:53.855Z,239.80
2023-02-11T19:05:02.514Z,346.90
2023-02-11T19:10:11.584Z,299.20
2023-02-11T19:15:20.098Z,375.50
2023-02-11T19:20:27.667Z,345.80
2023-02-11T19:25:36.725Z,287.70
2023-02-11T19:30:45.390Z,446.30
2023-02-11T19:35:53.847Z,285.50
2023-02-11T19:41:02.072Z,145.60
2023-02-11T19:46:11.677Z,123.50
2023-02-11T19:51:20.812Z,92.90
2023-02-11T19:56:30.058Z,110.90
2023-02-11T20:01:38.665Z,131.50
2023-02-11T20:06:49.599Z,170.30
2023-02-11T20:11:58.800Z,211.30
2023-02-11T20:17:07.883Z,242.20
2023-02-11T20:22:16.842Z,230.40
2023-02-11T20:27:26.075Z,270.30
2023-02-11T20:32:38.875Z,220.40
2023-02-11T20:37:48.010Z,200.20
2023-02-11T20:42:57.145Z,218.60
2023-02-11T20:48:07.026Z,157.90
2023-02-11T20:53:16.006Z,105.60
2023-02-11T20:58:24.526Z,100.50
2023-02-11T21:03:33.423Z,83.40
2023-02-11T21:08:41.832Z,83.80
2023-02-11T21:13:51.704Z,83.90
2023-02-11T21:19:00.935Z,81.90
2023-02-11T21:24:10.428Z,78.10
2023-02-11T21:29:18.971Z,80.50
2023-02-11T21:34:28.092Z,99.90
2023-02-11T21:39:36.446Z,91.10
2023-02-11T21:44:47.388Z,69.80
2023-02-11T21:49:56.087Z,64.00
2023-02-11T21:55:03.649Z,87.10
2023-02-11T22:00:13.860Z,100.00
2023-02-11T22:05:22.127Z,99.30
2023-02-11T22:10:29.630Z,81.90
2023-02-11T22:15:37.228Z,75.80
2023-02-11T22:20:45.534Z,58.40
2023-02-11T22:25:54.323Z,64.60
2023-02-11T22:31:02.924Z,68.60
2023-02-11T22:36:15.887Z,70.80
2023-02-11T22:41:24.840Z,69.40
2023-02-11T22:46:33.311Z,83.50
2023-02-11T22:51:42.398Z,82.60
2023-02-11T22:56:54.143Z,101.30
2023-02-11T23:02:02.702Z,107.00
2023-02-11T23:07:12.555Z,98.70
2023-02-11T23:12:20.626Z,52.90
2023-02-11T23:17:29.340Z,41.50
2023-02-11T23:22:39.333Z,29.50
2023-02-11T23:27:47.472Z,21.40
2023-02-11T23:32:56.655Z,17.80
2023-02-11T23:38:04.821Z,15.20
2023-02-11T23:43:13.155Z,12.30
2023-02-11T23:48:21.762Z,9.70
2023-02-11T23:53:30.606Z,5.80
2023-02-11T23:58:38.849Z,8.40
